Flight Track Log - Related Links

Times and Time Zones

All times are in EDT time to prevent confusion due to time zone crossing. See the SWA3247 flight status page for this flight to view local times or setup timezone preferences in your user account.

Time Position Orientation Groundspeed Altitude Reporting Facility
EDT Latitude Longitude Course Direction KTS MPH feet Rate Location/Type
Fri 08:55:43 PM 36.0772 -115.1811 65° Northeast 165 190 3,800  Level Los Angeles Center
Fri 08:56:26 PM 36.0756 -115.2350 268° West 208 239 4,900 1,984 Climbing Los Angeles Center
Fri 08:57:47 PM 36.1361 -115.2942 322° Northwest 259 298 7,900 2,350 Climbing Los Angeles Center
Fri 08:58:49 PM 36.1858 -115.2206 50° Northeast 289 333 10,500 2,855 Climbing Los Angeles Center
Fri 08:59:51 PM 36.1967 -115.1153 83° East 304 350 13,800 3,194 Climbing Los Angeles Center
Fri 09:00:53 PM 36.1986 -114.9889 89° East 306 352 17,100 2,274 Climbing Los Angeles Center
Fri 09:01:00 PM 36.4154 -114.2404 65° Northeast  Level Estimated
Fri 09:01:55 PM 36.1992 -114.8653 90° East 358 412 18,500  Level Los Angeles Center
Fri 09:02:57 PM 36.2000 -114.7300 90° East 389 448 20,800 1,985 Climbing Los Angeles Center
Fri 09:04:11 PM 36.1975 -114.5889 91° East 407 468 23,000 2,029 Climbing Los Angeles Center
Fri 09:05:13 PM 36.1964 -114.4139 90° East 420 483 25,400 2,274 Climbing Los Angeles Center
Fri 09:06:15 PM 36.1939 -114.2322 91° East 436 502 27,700 1,887 Climbing Los Angeles Center
Fri 09:07:17 PM 36.2133 -114.0772 81° East 451 519 29,300 1,403 Climbing Los Angeles Center
Fri 09:08:19 PM 36.2331 -113.9181 81° East 463 533 30,600 1,500 Climbing Los Angeles Center
Fri 09:09:21 PM 36.2517 -113.7561 82° East 472 543 32,400 1,694 Climbing Los Angeles Center
Fri 09:10:23 PM 36.2694 -113.5950 82° East 473 544 34,100 1,500 Climbing Los Angeles Center
Fri 09:11:25 PM 36.2881 -113.4356 82° East 470 541 35,500 1,161 Climbing Los Angeles Center
Fri 09:12:27 PM 36.3053 -113.2758 82° East 468 539 36,500 726 Climbing Los Angeles Center
Fri 09:13:29 PM 36.3556 -113.1031 70° East 482 555 37,000 242 Climbing Los Angeles Center
Fri 09:14:31 PM 36.4122 -112.9525 65° Northeast 484 557 37,000  Level Los Angeles Center
Fri 09:15:33 PM 36.4672 -112.8028 65° Northeast 482 555 37,000  Level Los Angeles Center
Fri 09:16:35 PM 36.5344 -112.6214 65° Northeast 483 556 37,000  Level Los Angeles Center
Fri 09:17:36 PM 36.5903 -112.4703 65° Northeast 484 557 37,000  Level Los Angeles Center
Fri 09:18:38 PM 36.6464 -112.3169 65° Northeast 487 560 37,000  Level Los Angeles Center
Fri 09:19:40 PM 36.7019 -112.1642 66° East 488 562 37,000  Level Los Angeles Center
Fri 09:20:42 PM 36.7572 -112.0111 66° East 487 560 37,000  Level Los Angeles Center
Fri 09:21:44 PM 36.8122 -111.8586 66° East 485 558 37,000  Level Los Angeles Center
Fri 09:22:46 PM 36.8778 -111.6753 66° East 485 558 37,000  Level Los Angeles Center
Fri 09:23:20 PM 36.8989 -111.6131 67° East 487 560 37,000  Level Denver Center
Fri 09:24:23 PM 36.9639 -111.4303 66° East 484 557 37,000 144 Level Denver Center
Fri 09:25:25 PM 37.0175 -111.2772 66° East 483 556 37,300 435 Climbing Denver Center
Fri 09:26:27 PM 37.0719 -111.1211 66° East 490 564 37,900 339 Climbing Denver Center
Fri 09:27:29 PM 37.1269 -110.9622 66° East 497 572 38,000 48 Climbing Denver Center
Fri 09:28:31 PM 37.1822 -110.8044 66° East 496 571 38,000  Level Denver Center
Fri 09:29:33 PM 37.2461 -110.6158 67° East 493 567 38,000  Level Denver Center
Fri 09:30:47 PM 37.3122 -110.4261 66° East 495 570 38,000  Level Denver Center
Fri 09:31:49 PM 37.3647 -110.2711 67° East 489 563 38,000  Level Denver Center
Fri 09:32:51 PM 37.4172 -110.1147 67° East 485 558 38,000  Level Denver Center
Fri 09:34:05 PM 37.4761 -109.9394 67° East 485 558 38,000 -175 Level Denver Center
Fri 09:35:08 PM 37.5347 -109.7633 67° East 486 559 37,600 -480 Descending Denver Center
Fri 09:36:10 PM 37.5936 -109.5878 67° East 486 559 37,000 -293 Descending Denver Center
Fri 09:37:11 PM 37.6350 -109.4619 67° East 487 560 37,000  Level Denver Center
Fri 09:38:14 PM 37.7014 -109.2608 67° East 485 558 37,000  Level Denver Center
Fri 09:39:16 PM 37.7503 -109.1106 68° East 484 557 37,000  Level Denver Center
Fri 09:40:18 PM 37.8069 -108.9367 68° East 480 552 37,000  Level Denver Center
Fri 09:41:20 PM 37.8589 -108.7853 66° East 487 560 37,000  Level Denver Center
Fri 09:42:22 PM 37.9203 -108.6111 66° East 485 558 37,000  Level Denver Center
Fri 09:43:24 PM 37.9708 -108.4625 67° East 482 555 37,000  Level Denver Center
Fri 09:44:26 PM 38.0325 -108.2861 66° East 487 560 37,000  Level Denver Center
Fri 09:45:28 PM 38.0808 -108.1439 67° East 484 557 37,000  Level Denver Center
Fri 09:46:30 PM 38.1403 -107.9711 66° East 480 552 37,000  Level Denver Center
Fri 09:47:32 PM 38.1906 -107.8231 67° East 479 551 37,000  Level Denver Center
Fri 09:48:34 PM 38.2486 -107.6494 67° East 479 551 37,000  Level Denver Center
Fri 09:49:35 PM 38.2989 -107.5008 67° East 479 551 37,000  Level Denver Center
Fri 09:50:37 PM 38.3567 -107.3269 67° East 478 550 37,000  Level Denver Center
Fri 09:51:51 PM 38.4100 -107.1658 67° East 482 555 37,000  Level Denver Center
Fri 09:53:05 PM 38.4656 -106.9733 70° East 483 556 37,000  Level Denver Center
Fri 09:54:08 PM 38.5050 -106.7725 76° East 488 562 37,000  Level Denver Center
Fri 09:55:10 PM 38.5375 -106.6042 76° East 490 564 37,000  Level Denver Center
Fri 09:56:11 PM 38.5700 -106.4367 76° East 490 564 37,000  Level Denver Center
Fri 09:57:13 PM 38.6033 -106.2669 76° East 493 567 37,000  Level Denver Center
Fri 09:58:15 PM 38.6411 -106.0744 76° East 490 564 37,000  Level Denver Center
Fri 09:59:17 PM 38.6719 -105.9056 77° East 490 564 37,000  Level Denver Center
Fri 10:00:19 PM 38.7064 -105.7386 75° East 489 563 37,000 242 Level Denver Center
Fri 10:01:21 PM 38.7361 -105.5708 77° East 486 559 37,500 726 Climbing Denver Center
Fri 10:02:23 PM 38.7731 -105.3700 77° East 484 557 38,500 732 Climbing Denver Center
Fri 10:03:24 PM 38.8036 -105.1972 77° East 497 572 39,000 244 Climbing Denver Center
Fri 10:04:26 PM 38.8361 -105.0258 76° East 498 573 39,000  Level Denver Center
Fri 10:05:28 PM 38.8664 -104.8508 77° East 503 579 39,000  Level Denver Center
Fri 10:06:30 PM 38.8989 -104.6756 77° East 508 585 39,000  Level Denver Center
Fri 10:07:32 PM 38.9358 -104.4653 77° East 507 583 39,000  Level Denver Center
Fri 10:08:33 PM 38.9672 -104.2861 77° East 514 592 39,000  Level Denver Center
Fri 10:09:35 PM 38.9981 -104.1067 77° East 518 596 39,000  Level Denver Center
Fri 10:10:37 PM 39.0289 -103.9253 78° East 521 600 39,000  Level Denver Center
Fri 10:11:39 PM 39.0597 -103.7439 78° East 523 602 39,000  Level Denver Center
Fri 10:12:40 PM 39.0908 -103.5603 78° East 527 606 39,000  Level Denver Center
Fri 10:13:42 PM 39.1286 -103.3386 78° East 529 609 39,000  Level Denver Center
Fri 10:14:44 PM 39.1578 -103.1542 78° East 529 609 39,000  Level Denver Center
Fri 10:15:46 PM 39.1883 -102.9681 78° East 531 611 39,000  Level Denver Center
Fri 10:16:47 PM 39.2200 -102.7808 78° East 536 617 39,000  Level Denver Center
Fri 10:17:49 PM 39.2503 -102.5867 79° East 534 615 39,000  Level Denver Center
Fri 10:18:51 PM 39.2778 -102.4056 79° East 537 618 39,000  Level Denver Center
Fri 10:19:52 PM 39.3100 -102.1967 79° East 532 612 39,000  Level Denver Center
Fri 10:20:54 PM 39.3394 -102.0078 79° East 531 611 39,000  Level Denver Center
Fri 10:22:08 PM 39.3669 -101.8297 79° East 530 610 39,000  Level Denver Center
Fri 10:23:10 PM 39.4189 -101.5981 74° East 528 608 39,000  Level Denver Center
Fri 10:24:11 PM 39.4847 -101.4042 66° East 527 606 39,000  Level Denver Center
Fri 10:25:13 PM 39.5403 -101.2383 66° East 527 606 39,000  Level Denver Center
Fri 10:26:15 PM 39.6053 -101.0428 67° East 530 610 39,000  Level Denver Center
Fri 10:27:17 PM 39.6597 -100.8747 67° East 531 611 39,000  Level Denver Center
Fri 10:28:18 PM 39.7153 -100.7078 67° East 530 610 39,000  Level Denver Center
Fri 10:29:20 PM 39.7789 -100.5156 67° East 522 601 39,000  Level Denver Center
Fri 10:30:22 PM 39.8317 -100.3503 67° East 519 597 39,000  Level Denver Center
Fri 10:31:23 PM 39.8858 -100.1817 67° East 518 596 39,000  Level Denver Center
Fri 10:32:25 PM 39.9522 -99.9736 67° East 519 597 39,000  Level Denver Center
Fri 10:33:26 PM 40.0083 -99.8019 67° East 518 596 39,000  Level Denver Center
Fri 10:34:28 PM 40.0622 -99.6272 68° East 518 596 39,000  Level Denver Center
Fri 10:35:30 PM 40.1169 -99.4531 68° East 519 597 39,000  Level Denver Center
Fri 10:36:31 PM 40.1703 -99.2803 68° East 516 594 39,000  Level Denver Center
Fri 10:37:33 PM 40.2239 -99.1100 68° East 510 587 39,000  Level Denver Center
Fri 10:38:12 PM 40.2667 -98.9739 68° East 511 588 39,000  Level Minneapolis Center
Fri 10:39:14 PM 40.3178 -98.8033 68° East 508 585 39,000  Level Minneapolis Center
Fri 10:40:15 PM 40.3692 -98.6333 68° East 505 581 39,000  Level Minneapolis Center
Fri 10:41:17 PM 40.4208 -98.4639 68° East 505 581 39,000  Level Minneapolis Center
Fri 10:42:18 PM 40.4714 -98.2925 69° East 505 581 39,000  Level Minneapolis Center
Fri 10:43:20 PM 40.5111 -98.1142 74° East 509 586 39,000  Level Minneapolis Center
Fri 10:44:21 PM 40.5469 -97.9356 75° East 509 586 39,000  Level Minneapolis Center
Fri 10:45:23 PM 40.5900 -97.7206 75° East 510 587 39,000  Level Minneapolis Center
Fri 10:46:24 PM 40.6261 -97.5408 75° East 509 586 39,000  Level Minneapolis Center
Fri 10:47:26 PM 40.6608 -97.3594 76° East 512 589 39,000  Level Minneapolis Center
Fri 10:48:27 PM 40.6989 -97.1706 75° East 510 587 39,000  Level Minneapolis Center
Fri 10:49:29 PM 40.7339 -96.9900 76° East 510 587 39,000  Level Minneapolis Center
Fri 10:50:31 PM 40.7686 -96.8114 76° East 507 583 39,000  Level Minneapolis Center
Fri 10:51:32 PM 40.8036 -96.6314 76° East 508 585 39,000  Level Minneapolis Center
Fri 10:52:33 PM 40.8364 -96.4519 76° East 508 585 39,000  Level Minneapolis Center
Fri 10:53:35 PM 40.8700 -96.2733 76° East 505 581 39,000  Level Minneapolis Center
Fri 10:54:36 PM 40.9028 -96.0958 76° East 503 579 39,000  Level Minneapolis Center
Fri 10:55:38 PM 40.9419 -95.8808 76° East 505 581 39,000  Level Minneapolis Center
Fri 10:56:39 PM 40.9747 -95.7011 76° East 507 583 39,000  Level Minneapolis Center
Fri 10:57:41 PM 41.0078 -95.5197 76° East 510 587 39,000  Level Minneapolis Center
Fri 10:58:42 PM 41.0408 -95.3369 76° East 513 590 39,000  Level Minneapolis Center
Fri 10:59:46 PM 41.0733 -95.1544 77° East 513 590 39,000  Level Minneapolis Center
Fri 11:00:48 PM 41.1122 -94.9344 77° East 513 590 39,000  Level Minneapolis Center
Fri 11:01:49 PM 41.1433 -94.7503 77° East 514 592 39,000  Level Minneapolis Center
Fri 11:02:50 PM 41.1747 -94.5664 77° East 513 590 39,000  Level Minneapolis Center
Fri 11:03:52 PM 41.2064 -94.3817 77° East 513 590 39,000  Level Minneapolis Center
Fri 11:04:53 PM 41.2314 -94.2156 79° East 509 586 39,000  Level Minneapolis Center
Fri 11:05:55 PM 41.2692 -93.9953 77° East 511 588 39,000  Level Minneapolis Center
Fri 11:06:56 PM 41.3008 -93.8103 77° East 514 592 39,000  Level Minneapolis Center
Fri 11:07:58 PM 41.3308 -93.6247 78° East 516 594 39,000  Level Minneapolis Center
Fri 11:08:59 PM 41.3622 -93.4375 77° East 520 598 39,000  Level Minneapolis Center
Fri 11:10:01 PM 41.3914 -93.2511 78° East 519 597 39,000  Level Minneapolis Center
Fri 11:11:02 PM 41.4217 -93.0633 78° East 520 598 39,000  Level Minneapolis Center
Fri 11:12:04 PM 41.4500 -92.8742 79° East 522 601 39,000  Level Minneapolis Center
Fri 11:13:05 PM 41.4794 -92.6869 78° East 521 600 39,000  Level Minneapolis Center
Fri 11:14:06 PM 41.5133 -92.4597 79° East 522 601 39,000  Level Minneapolis Center
Fri 11:15:08 PM 41.5425 -92.2703 78° East 523 602 39,000  Level Minneapolis Center
Fri 11:16:09 PM 41.5706 -92.0797 79° East 525 604 39,000  Level Minneapolis Center
Fri 11:17:11 PM 41.5983 -91.8883 79° East 527 606 39,000  Level Minneapolis Center
Fri 11:18:12 PM 41.6269 -91.6764 80° East 527 606 39,000  Level Minneapolis Center
Fri 11:19:34 PM 41.6628 -91.4367 79° East 522 601 39,000  Level Chicago Center
Fri 11:20:36 PM 41.6889 -91.2475 79° East 524 603 39,000  Level Chicago Center
Fri 11:21:37 PM 41.7150 -91.0597 79° East 522 601 39,000  Level Chicago Center
Fri 11:22:38 PM 41.7447 -90.8311 80° East 525 604 39,000  Level Chicago Center
Fri 11:23:39 PM 41.7714 -90.6400 79° East 528 608 39,000  Level Chicago Center
Fri 11:24:40 PM 41.7978 -90.4483 79° East 530 610 39,000  Level Chicago Center
Fri 11:25:41 PM 41.8214 -90.2592 80° East 526 605 39,000  Level Chicago Center
Fri 11:26:42 PM 41.8461 -90.0658 80° East 532 612 39,000  Level Chicago Center
Fri 11:27:43 PM 41.8725 -89.8539 80° East 529 609 39,000  Level Chicago Center
Fri 11:28:44 PM 41.8978 -89.6592 80° East 529 609 39,000  Level Chicago Center
Fri 11:29:46 PM 41.9206 -89.4653 81° East 530 610 39,000  Level Chicago Center
Fri 11:30:47 PM 41.9439 -89.2708 81° East 529 609 39,000  Level Chicago Center
Fri 11:31:48 PM 41.9675 -89.0789 81° East 523 602 39,000  Level Chicago Center
Fri 11:32:49 PM 41.9919 -88.8839 80° East 527 606 39,000  Level Chicago Center
Fri 11:33:50 PM 42.0144 -88.6872 81° East 531 611 39,000  Level Chicago Center
Fri 11:34:51 PM 42.0408 -88.4506 81° East 533 613 39,000  Level Chicago Center
Fri 11:35:52 PM 42.0636 -88.2536 81° East 532 612 39,000  Level Chicago Center
Fri 11:36:53 PM 42.0847 -88.0572 82° East 531 611 39,000  Level Chicago Center
Fri 11:37:54 PM 42.1067 -87.8603 81° East 531 611 39,000  Level Chicago Center
Fri 11:38:55 PM 42.1272 -87.6636 82° East 531 611 39,000  Level Chicago Center
Fri 11:39:57 PM 42.1478 -87.4664 82° East 532 612 39,000  Level Chicago Center
Fri 11:40:58 PM 42.1683 -87.2717 82° East 528 608 39,000  Level Chicago Center
Fri 11:41:59 PM 42.1878 -87.0747 82° East 533 613 39,000  Level Chicago Center
Fri 11:43:00 PM 42.2078 -86.8800 82° East 528 608 39,000  Level Chicago Center
Fri 11:44:01 PM 42.2292 -86.6586 82° East 531 611 39,000  Level Chicago Center
Fri 11:45:02 PM 42.2483 -86.4611 82° East 532 612 39,000  Level Chicago Center
Fri 11:46:03 PM 42.2672 -86.2625 83° East 533 613 39,000  Level Chicago Center
Fri 11:47:04 PM 42.2853 -86.0628 83° East 535 616 39,000  Level Chicago Center
Fri 11:48:05 PM 42.3014 -85.8819 83° East 533 613 39,000  Level Chicago Center
Fri 11:49:06 PM 42.3192 -85.6850 83° East 534 615 39,000  Level Chicago Center
Fri 11:50:07 PM 42.3414 -85.4456 83° East 537 618 39,000  Level Chicago Center
Fri 11:51:08 PM 42.3581 -85.2456 83° East 539 620 39,000  Level Chicago Center
Fri 11:52:09 PM 42.3747 -85.0492 83° East 533 613 39,000  Level Chicago Center
Fri 11:53:10 PM 42.3917 -84.8522 83° East 531 611 39,000  Level Chicago Center
Fri 11:54:11 PM 42.4072 -84.6539 84° East 533 613 39,000  Level Chicago Center
Fri 11:55:12 PM 42.4228 -84.4575 84° East 530 610 39,000  Level Chicago Center
Fri 11:55:53 PM 42.4306 -84.3278 85° East 528 608 39,000  Level Cleveland Center
Fri 11:56:53 PM 42.4453 -84.1289 84° East 528 608 39,000  Level Cleveland Center
Fri 11:57:53 PM 42.4617 -83.9297 84° East 533 613 39,000  Level Cleveland Center
Fri 11:58:53 PM 42.4781 -83.7111 84° East 533 613 39,000  Level Cleveland Center
Fri 11:59:53 PM 42.4917 -83.5089 85° East 533 613 39,000  Level Cleveland Center
Sat 12:00:53 AM 42.5050 -83.3067 85° East 538 619 39,000  Level Cleveland Center
Sat 12:01:53 AM 42.5181 -83.1072 85° East 533 613 39,000  Level Cleveland Center
Sat 12:02:53 AM 42.5306 -82.9050 85° East 533 613 39,000  Level Cleveland Center
Sat 12:03:53 AM 42.5428 -82.7025 85° East 533 613 39,000  Level Cleveland Center
Sat 12:04:53 AM 42.5547 -82.5028 85° East 533 613 39,000  Level Cleveland Center
Sat 12:05:53 AM 42.5661 -82.3028 86° East 538 619 39,000  Level Cleveland Center
Sat 12:06:53 AM 42.5772 -82.1031 86° East 538 619 39,000  Level Cleveland Center
Sat 12:07:53 AM 42.5903 -81.9031 85° East 538 619 39,000  Level Cleveland Center
Sat 12:08:53 AM 42.6028 -81.7058 85° East 538 619 39,000  Level Cleveland Center
Sat 12:09:53 AM 42.6128 -81.5028 86° East 530 610 39,000  Level Cleveland Center
Sat 12:10:53 AM 42.6225 -81.2997 86° East 530 610 39,000  Level Cleveland Center
Sat 12:11:53 AM 42.6319 -81.1025 86° East 530 610 39,000  Level Cleveland Center
Sat 12:12:53 AM 42.6411 -80.9022 86° East 534 615 39,000  Level Cleveland Center
Sat 12:13:53 AM 42.6519 -80.7047 86° East 534 615 39,000  Level Cleveland Center
Sat 12:14:53 AM 42.6603 -80.5014 87° East 531 611 39,000  Level Cleveland Center
Sat 12:15:53 AM 42.6661 -80.3206 87° East 531 611 39,000  Level Cleveland Center
Sat 12:16:53 AM 42.6761 -80.1228 86° East 531 611 39,000  Level Cleveland Center
Sat 12:17:53 AM 42.6856 -79.9222 86° East 536 617 39,000  Level Cleveland Center
Sat 12:18:53 AM 42.6925 -79.7217 87° East 536 617 39,000  Level Cleveland Center
Sat 12:19:53 AM 42.6992 -79.5211 87° East 531 611 39,000  Level Cleveland Center
Sat 12:20:53 AM 42.7075 -79.3203 87° East 531 611 39,000  Level Cleveland Center
Sat 12:21:53 AM 42.7136 -79.1222 88° East 531 611 39,000  Level Cleveland Center
Sat 12:22:53 AM 42.7172 -78.9217 89° East 536 617 39,000  Level Cleveland Center
Sat 12:23:53 AM 42.7244 -78.7208 87° East 536 617 39,000  Level Cleveland Center
Sat 12:24:53 AM 42.7272 -78.5200 89° East 536 617 39,000 -200 Level Cleveland Center
Sat 12:25:53 AM 42.7342 -78.3219 87° East 536 617 38,600 -650 Descending Cleveland Center
Sat 12:26:53 AM 42.7383 -78.1181 88° East 531 611 37,700 -950 Descending Cleveland Center
Sat 12:27:53 AM 42.7422 -77.9200 88° East 531 611 36,700 -950 Descending Cleveland Center
Sat 12:28:53 AM 42.7450 -77.6908 89° East 539 620 35,800 -950 Descending Cleveland Center
Sat 12:29:53 AM 42.7500 -77.4842 88° East 547 629 34,800 -995 Descending Cleveland Center
Sat 12:32:06 AM 42.7556 -77.0386 89° East 554 638 32,600 -974 Descending Boston Center
Sat 12:33:04 AM 42.7575 -76.8294 89° East 548 631 31,700 -843 Descending Boston Center
Sat 12:34:07 AM 42.7594 -76.6683 89° East 543 625 30,900 -900 Descending Boston Center
Sat 12:35:04 AM 42.7611 -76.4506 89° East 537 618 29,900 -1,128 Descending Boston Center
Sat 12:36:04 AM 42.7603 -76.2300 90° East 530 610 28,700 -900 Descending Boston Center
Sat 12:37:04 AM 42.7644 -76.0378 88° East 525 604 28,100 -350 Descending Boston Center
Sat 12:38:04 AM 42.7622 -75.8397 91° East 519 597 28,000 -984 Descending Boston Center
Sat 12:39:06 AM 42.7617 -75.6444 90° East 519 597 26,100 -2,049 Descending Boston Center
Sat 12:40:07 AM 42.7625 -75.4661 90° East 508 585 23,800 -2,550 Descending Boston Center
Sat 12:41:06 AM 42.7628 -75.2853 90° East 486 559 21,000 -2,769 Descending Boston Center
Sat 12:42:04 AM 42.7631 -75.1097 90° East 472 543 18,400 -2,492 Descending Boston Center
Sat 12:43:04 AM 42.7625 -74.9458 90° East 460 529 16,100 -2,298 Descending Boston Center
Sat 12:43:38 AM 42.7625 -74.8497 90° East 423 487 14,800 -2,041 Descending Boston Center
Sat 12:44:41 AM 42.7614 -74.6969 91° East 401 461 12,800 -1,672 Descending Boston Center
Sat 12:45:40 AM 42.7581 -74.5497 92° East 381 438 11,400 -1,322 Descending Boston Center
Sat 12:46:39 AM 42.7583 -74.4194 90° East 346 398 10,200 -1,250 Descending Boston Center
Sat 12:47:40 AM 42.7542 -74.2950 93° East 324 373 8,900 -1,403 Descending Boston Center
Sat 12:48:43 AM 42.7142 -74.1864 117° Southeast 303 349 7,300 -1,512 Descending Boston Center
Sat 12:49:43 AM 42.6636 -74.0889 125° Southeast 308 354 5,800 -1,100 Descending Boston Center
Sat 12:50:43 AM 42.6019 -74.0225 142° Southeast 275 316 5,100 -700 Descending Boston Center
Sat 12:51:43 AM 42.5444 -73.9647 143° Southeast 249 287 4,400 -590 Descending Boston Center
Sat 12:52:45 AM 42.4994 -73.9044 135° Southeast 234 269 3,900 -683 Descending Boston Center
Sat 12:53:46 AM 42.5189 -73.8344 69° East 216 249 3,000 -807 Descending Boston Center
Sat 12:54:44 AM 42.5756 -73.8189 11° North 199 229 2,300 -522 Descending Boston Center
Sat 12:55:18 AM 42.5964 -73.8053 26° Northeast 170 196 2,200 -261 Descending Boston Center
Sat 12:56:16 AM 42.6406 -73.7864 17° North 170 196 1,900 -409 Descending Boston Center
Sat 12:56:46 AM 42.6694 -73.8039 336° Northwest 126 145 1,600 -659 Descending Boston Center
Sat 12:57:47 AM 42.7069 -73.8047 359° North 123 142 900 -689 Descending Boston Center
Sat 01:00:00 AM 42.7333 -73.8000 105° East  Level FlightAware Approximate
Sat 01:07:00 AM 42.7491 -73.8020 105° East  Level Estimated
Sat 01:08:00 AM 42.7491 -73.8020 105° East  Level Estimated

Login

Don't have an account? Register now (free) for customized features, flight alerts, and more!